createdAt,value
2023-04-16T00:01:30.520Z,28.60
2023-04-16T00:04:01.199Z,25.80
2023-04-16T00:06:53.156Z,27.30
2023-04-16T00:10:02.385Z,42.00
2023-04-16T00:13:05.978Z,36.20
2023-04-16T00:16:15.635Z,34.70
2023-04-16T00:19:12.179Z,36.70
2023-04-16T00:22:17.932Z,36.10
2023-04-16T00:25:34.794Z,43.80
2023-04-16T00:28:19.518Z,49.80
2023-04-16T00:30:50.480Z,49.30
2023-04-16T00:34:21.104Z,47.90
2023-04-16T00:37:30.557Z,45.70
2023-04-16T00:41:05.045Z,41.10
2023-04-16T00:44:26.904Z,56.50
2023-04-16T00:47:31.858Z,40.70
2023-04-16T00:50:59.741Z,42.50
2023-04-16T00:53:43.815Z,44.80
2023-04-16T00:56:20.878Z,30.40
2023-04-16T00:59:17.357Z,32.80
2023-04-16T01:01:46.667Z,29.50
2023-04-16T01:04:16.328Z,28.20
2023-04-16T01:06:45.062Z,30.70
2023-04-16T01:09:15.484Z,32.70
2023-04-16T01:11:44.192Z,27.10
2023-04-16T01:14:44.633Z,23.10
2023-04-16T01:17:15.944Z,27.80
2023-04-16T01:20:05.430Z,27.30
2023-04-16T01:22:54.996Z,31.90
2023-04-16T01:25:25.827Z,29.00
2023-04-16T01:28:08.845Z,31.00
2023-04-16T01:31:03.616Z,30.40
2023-04-16T01:33:56.298Z,23.90
2023-04-16T01:36:25.656Z,27.30
2023-04-16T01:39:08.094Z,25.10
2023-04-16T01:41:41.759Z,26.70
2023-04-16T01:44:13.983Z,28.00
2023-04-16T01:46:45.771Z,33.40
2023-04-16T01:50:35.788Z,25.90
2023-04-16T01:53:33.834Z,27.00
2023-04-16T01:59:48.182Z,26.10
2023-04-16T02:02:30.790Z,24.80
2023-04-16T02:05:46.166Z,28.70
2023-04-16T02:09:30.728Z,25.30
2023-04-16T02:12:16.550Z,24.60
2023-04-16T02:15:06.009Z,24.80
2023-04-16T02:18:30.376Z,24.30
2023-04-16T02:21:34.094Z,24.70
2023-04-16T02:25:02.470Z,26.20
2023-04-16T02:28:35.536Z,25.40
2023-04-16T02:31:35.850Z,25.70
2023-04-16T02:35:17.698Z,22.40
2023-04-16T02:38:11.086Z,34.40
2023-04-16T02:41:56.140Z,23.80
2023-04-16T02:44:25.149Z,20.90
2023-04-16T02:48:20.272Z,23.40
2023-04-16T02:52:15.551Z,21.30
2023-04-16T02:54:45.464Z,22.10
2023-04-16T02:57:39.050Z,26.30
2023-04-16T03:00:24.738Z,23.70
2023-04-16T03:03:31.853Z,20.90
2023-04-16T03:06:55.226Z,20.00
2023-04-16T03:09:44.450Z,21.90
2023-04-16T03:12:57.774Z,29.70
2023-04-16T03:16:00.257Z,21.60
2023-04-16T03:18:44.299Z,23.20
2023-04-16T03:21:50.936Z,21.90
2023-04-16T03:24:34.684Z,22.40
2023-04-16T03:27:04.885Z,21.40
2023-04-16T03:29:34.034Z,24.00
2023-04-16T03:32:02.838Z,24.60
2023-04-16T03:34:33.256Z,24.70
2023-04-16T03:37:57.980Z,26.30
2023-04-16T03:40:33.494Z,21.30
2023-04-16T03:43:02.762Z,26.70
2023-04-16T03:45:49.318Z,25.40
2023-04-16T03:49:12.582Z,30.50
2023-04-16T03:51:50.155Z,23.90
2023-04-16T03:54:21.312Z,25.00
2023-04-16T03:56:54.496Z,24.30
2023-04-16T03:59:22.975Z,28.90
2023-04-16T04:01:52.458Z,26.60
2023-04-16T04:04:21.500Z,26.10
2023-04-16T04:06:50.271Z,25.90
2023-04-16T04:09:21.202Z,28.60
2023-04-16T04:11:52.359Z,28.40
2023-04-16T04:14:21.446Z,23.70
2023-04-16T04:16:50.234Z,25.90
2023-04-16T04:19:19.025Z,26.20
2023-04-16T04:21:47.801Z,25.30
2023-04-16T04:24:18.016Z,26.80
2023-04-16T04:26:47.219Z,27.90
2023-04-16T04:29:16.542Z,28.50
2023-04-16T04:31:45.905Z,24.40
2023-04-16T04:34:14.807Z,25.20
2023-04-16T04:36:43.609Z,26.40
2023-04-16T04:39:15.355Z,25.10
2023-04-16T04:41:44.780Z,27.70
2023-04-16T04:44:13.491Z,27.40
2023-04-16T04:46:43.161Z,26.90
2023-04-16T04:49:11.841Z,26.40
2023-04-16T04:51:40.946Z,31.10
2023-04-16T04:54:09.753Z,32.80
2023-04-16T04:56:46.413Z,28.70
2023-04-16T04:59:15.286Z,28.50
2023-04-16T05:01:43.866Z,25.50
2023-04-16T05:04:12.851Z,31.40
2023-04-16T05:06:41.749Z,31.80
2023-04-16T05:09:14.433Z,27.90
2023-04-16T05:11:43.231Z,23.70
2023-04-16T05:14:12.343Z,26.80
2023-04-16T05:16:41.223Z,25.10
2023-04-16T05:19:10.383Z,26.90
2023-04-16T05:21:39.205Z,23.20
2023-04-16T05:24:07.875Z,31.30
2023-04-16T05:26:36.494Z,27.70
2023-04-16T05:29:05.352Z,30.30
2023-04-16T05:31:33.940Z,27.70
2023-04-16T05:34:03.176Z,28.80
2023-04-16T05:36:31.819Z,25.80
2023-04-16T05:39:00.622Z,25.90
2023-04-16T05:41:29.651Z,26.30
2023-04-16T05:43:58.922Z,32.30
2023-04-16T05:46:27.729Z,28.60
2023-04-16T05:48:56.379Z,26.90
2023-04-16T05:51:26.587Z,29.10
2023-04-16T05:54:01.944Z,26.10
2023-04-16T05:56:38.564Z,25.60
2023-04-16T05:59:08.612Z,26.60
2023-04-16T06:01:37.423Z,24.80
2023-04-16T06:04:06.596Z,24.90
2023-04-16T06:07:20.258Z,27.30
2023-04-16T06:09:49.057Z,29.10
2023-04-16T06:12:49.979Z,29.60
2023-04-16T06:15:18.973Z,30.60
2023-04-16T06:17:47.734Z,32.90
2023-04-16T06:20:16.762Z,24.80
2023-04-16T06:22:45.356Z,29.60
2023-04-16T06:26:31.029Z,32.70
2023-04-16T06:29:50.909Z,28.80
2023-04-16T06:32:19.726Z,26.20
2023-04-16T06:34:55.413Z,29.00
2023-04-16T06:37:24.546Z,32.10
2023-04-16T06:40:16.107Z,28.30
2023-04-16T06:43:45.621Z,37.70
2023-04-16T06:46:17.165Z,35.20
2023-04-16T06:49:49.982Z,31.60
2023-04-16T06:52:48.504Z,28.80
2023-04-16T06:56:09.761Z,27.30
2023-04-16T06:58:39.289Z,27.70
2023-04-16T07:01:08.566Z,28.00
2023-04-16T07:04:20.089Z,23.20
2023-04-16T07:06:50.107Z,24.10
2023-04-16T07:09:18.517Z,34.50
2023-04-16T07:12:01.041Z,25.50
2023-04-16T07:14:40.151Z,24.10
2023-04-16T07:17:34.843Z,25.50
2023-04-16T07:20:11.560Z,27.60
2023-04-16T07:22:40.215Z,24.30
2023-04-16T07:25:09.830Z,26.60
2023-04-16T07:27:38.710Z,23.40
2023-04-16T07:30:16.414Z,20.30
2023-04-16T07:32:45.126Z,21.90
2023-04-16T07:35:14.187Z,18.30
2023-04-16T07:44:33.734Z,21.20
2023-04-16T07:55:43.622Z,21.70
2023-04-16T07:58:43.734Z,18.00
2023-04-16T08:01:14.040Z,18.20
2023-04-16T08:04:54.845Z,19.60
2023-04-16T08:07:29.782Z,18.40
2023-04-16T08:09:58.458Z,17.70
2023-04-16T08:12:29.163Z,19.90
2023-04-16T08:14:57.783Z,16.60
2023-04-16T08:17:26.501Z,20.10
2023-04-16T08:21:11.735Z,18.80
2023-04-16T08:23:42.549Z,25.10
2023-04-16T08:26:11.882Z,20.00
2023-04-16T10:18:31.274Z,13.80
2023-04-16T10:21:00.292Z,13.20
2023-04-16T10:24:02.528Z,16.10
2023-04-16T10:27:06.398Z,11.60
2023-04-16T10:30:01.098Z,11.00
2023-04-16T10:32:34.814Z,12.60
2023-04-16T10:35:05.641Z,11.00
2023-04-16T10:37:34.326Z,13.60
2023-04-16T10:40:23.768Z,11.20
2023-04-16T10:42:59.790Z,13.70
2023-04-16T10:45:48.869Z,11.00
2023-04-16T10:48:21.034Z,9.90
2023-04-16T10:50:59.034Z,10.80
2023-04-16T10:53:28.955Z,12.20
2023-04-16T10:56:28.252Z,15.00
2023-04-16T10:58:56.759Z,15.00
2023-04-16T11:01:45.107Z,10.90
2023-04-16T11:04:40.294Z,12.40
2023-04-16T11:07:20.882Z,13.80
2023-04-16T11:10:05.440Z,14.00
2023-04-16T11:12:39.240Z,13.20
2023-04-16T11:15:20.001Z,11.40
2023-04-16T11:17:54.612Z,15.10
2023-04-16T11:20:26.175Z,17.40
2023-04-16T11:22:57.159Z,17.20
2023-04-16T11:25:30.150Z,16.90
2023-04-16T11:29:14.049Z,17.60
2023-04-16T11:32:37.645Z,19.70
2023-04-16T11:36:04.444Z,16.70
2023-04-16T11:38:39.242Z,14.40
2023-04-16T11:41:08.083Z,15.40
2023-04-16T11:44:51.919Z,15.60
2023-04-16T11:47:21.657Z,19.50
2023-04-16T11:49:51.017Z,17.30
2023-04-16T11:52:46.055Z,18.20
2023-04-16T11:55:15.699Z,16.10
2023-04-16T11:57:44.446Z,16.50
2023-04-16T12:00:15.399Z,19.50
2023-04-16T12:02:52.045Z,17.60
2023-04-16T12:05:39.408Z,22.10
2023-04-16T12:08:10.280Z,22.60
2023-04-16T12:10:54.822Z,21.50
2023-04-16T12:13:26.861Z,24.30
2023-04-16T12:15:57.553Z,21.60
2023-04-16T12:18:29.363Z,25.20
2023-04-16T12:21:00.001Z,27.20
2023-04-16T12:23:33.760Z,27.10
2023-04-16T12:29:28.056Z,29.70
2023-04-16T12:34:53.780Z,37.80
2023-04-16T12:37:32.747Z,94.30
2023-04-16T12:40:03.253Z,114.00
2023-04-16T12:42:36.183Z,124.90
2023-04-16T12:45:06.433Z,139.60
2023-04-16T12:47:35.240Z,148.90
2023-04-16T12:50:04.861Z,139.40
2023-04-16T12:52:34.496Z,144.80
2023-04-16T12:55:03.668Z,135.20
2023-04-16T12:57:32.251Z,152.60
2023-04-16T13:00:02.375Z,156.90
2023-04-16T13:02:32.416Z,167.70
2023-04-16T13:05:01.902Z,164.90
2023-04-16T13:07:32.522Z,187.30
2023-04-16T13:10:02.065Z,179.60
2023-04-16T13:12:38.319Z,176.70
2023-04-16T13:15:31.513Z,155.80
2023-04-16T13:18:01.577Z,171.10
2023-04-16T13:20:33.449Z,174.70
2023-04-16T13:23:05.344Z,171.40
2023-04-16T13:25:35.830Z,179.80
2023-04-16T13:28:05.689Z,184.00
2023-04-16T13:30:36.369Z,186.20
2023-04-16T13:33:06.934Z,196.10
2023-04-16T13:35:36.123Z,177.50
2023-04-16T13:38:05.575Z,181.80
2023-04-16T13:40:34.335Z,205.30
2023-04-16T13:43:02.964Z,204.10
2023-04-16T13:45:32.468Z,203.90
2023-04-16T13:48:01.289Z,215.40
2023-04-16T13:54:09.294Z,210.10
2023-04-16T13:56:38.372Z,218.90
2023-04-16T13:59:18.150Z,217.60
2023-04-16T14:01:57.861Z,230.60
2023-04-16T14:04:50.611Z,236.90
2023-04-16T14:07:21.872Z,226.20
2023-04-16T14:10:16.044Z,231.20
2023-04-16T14:12:48.219Z,231.10
2023-04-16T14:15:17.510Z,191.70
2023-04-16T14:17:49.603Z,182.40
2023-04-16T14:20:18.268Z,195.80
2023-04-16T14:22:47.161Z,185.00
2023-04-16T14:25:16.452Z,170.20
2023-04-16T14:27:52.515Z,164.90
2023-04-16T14:30:46.698Z,171.80
2023-04-16T14:33:26.428Z,168.40
2023-04-16T14:36:03.196Z,170.50
2023-04-16T14:38:32.857Z,163.70
2023-04-16T14:41:01.925Z,198.20
2023-04-16T14:43:55.593Z,206.10
2023-04-16T14:46:25.467Z,189.10
2023-04-16T14:48:54.196Z,192.40
2023-04-16T14:51:22.875Z,188.20
2023-04-16T14:53:51.702Z,192.10
2023-04-16T14:56:20.460Z,178.30
2023-04-16T14:58:49.041Z,179.50
2023-04-16T15:01:43.545Z,188.70
2023-04-16T15:04:39.557Z,197.90
2023-04-16T15:07:08.601Z,205.30
2023-04-16T15:10:07.551Z,189.90
2023-04-16T15:12:36.027Z,191.90
2023-04-16T15:15:07.098Z,196.90
2023-04-16T15:17:36.221Z,205.20
2023-04-16T15:20:11.167Z,204.80
2023-04-16T15:22:40.618Z,184.60
2023-04-16T15:25:09.534Z,173.40
2023-04-16T15:27:39.475Z,195.60
2023-04-16T15:30:08.936Z,178.10
2023-04-16T15:32:37.430Z,179.80
2023-04-16T15:35:07.559Z,197.50
2023-04-16T15:37:37.731Z,180.20
2023-04-16T15:40:08.708Z,180.80
2023-04-16T15:42:37.570Z,198.20
2023-04-16T15:45:06.862Z,195.20
2023-04-16T15:47:37.545Z,194.90
2023-04-16T15:50:08.822Z,188.80
2023-04-16T15:52:39.955Z,205.80
2023-04-16T15:55:09.599Z,195.00
2023-04-16T15:57:38.388Z,207.80
2023-04-16T16:00:17.611Z,222.90
2023-04-16T16:02:47.682Z,190.30
2023-04-16T16:05:17.135Z,204.40
2023-04-16T16:07:45.702Z,196.70
2023-04-16T16:13:49.355Z,189.60
2023-04-16T16:16:18.281Z,184.90
2023-04-16T16:18:47.658Z,188.70
2023-04-16T16:21:16.531Z,182.60
2023-04-16T16:23:45.260Z,182.10
2023-04-16T16:26:14.014Z,190.60
2023-04-16T16:32:17.552Z,177.60
2023-04-16T16:34:46.119Z,204.60
2023-04-16T16:37:22.486Z,226.40
2023-04-16T16:39:52.640Z,198.60
2023-04-16T16:42:21.077Z,177.20
2023-04-16T16:44:49.964Z,209.90
2023-04-16T16:47:44.495Z,196.30
2023-04-16T16:50:13.144Z,213.80
2023-04-16T16:52:42.034Z,225.60
2023-04-16T16:55:11.362Z,213.50
2023-04-16T16:57:41.558Z,216.20
2023-04-16T17:00:15.433Z,174.30
2023-04-16T17:02:44.603Z,217.80
2023-04-16T17:05:13.787Z,201.50
2023-04-16T17:07:44.392Z,215.00
2023-04-16T17:10:20.327Z,218.50
2023-04-16T17:12:49.738Z,219.10
2023-04-16T17:15:21.130Z,205.30
2023-04-16T17:17:50.683Z,166.30
2023-04-16T17:20:20.234Z,127.40
2023-04-16T17:22:48.820Z,146.50
2023-04-16T17:25:17.381Z,142.20
2023-04-16T17:27:47.908Z,151.30
2023-04-16T17:30:17.429Z,159.60
2023-04-16T17:32:45.813Z,134.00
2023-04-16T17:35:14.983Z,138.70
2023-04-16T17:38:36.045Z,131.20
2023-04-16T17:41:05.812Z,137.10
2023-04-16T17:43:34.392Z,139.20
2023-04-16T17:46:28.191Z,142.60
2023-04-16T17:48:58.087Z,132.90
2023-04-16T17:51:27.687Z,120.80
2023-04-16T17:53:56.373Z,138.60
2023-04-16T17:56:25.157Z,119.10
2023-04-16T17:58:53.641Z,145.40
2023-04-16T18:01:22.506Z,160.40
2023-04-16T18:03:51.672Z,145.60
2023-04-16T18:06:20.415Z,128.30
2023-04-16T18:08:48.786Z,125.20
2023-04-16T18:11:23.318Z,129.10
2023-04-16T18:13:54.276Z,130.10
2023-04-16T18:16:23.114Z,131.20
2023-04-16T18:18:51.521Z,109.50
2023-04-16T18:21:20.008Z,133.60
2023-04-16T18:23:48.687Z,139.90
2023-04-16T18:26:20.450Z,137.70
2023-04-16T18:28:49.672Z,127.10
2023-04-16T18:31:21.199Z,133.50
2023-04-16T18:33:57.218Z,142.40
2023-04-16T18:36:27.598Z,157.20
2023-04-16T18:39:01.706Z,145.70
2023-04-16T18:41:31.599Z,161.60
2023-04-16T18:44:00.519Z,171.30
2023-04-16T18:46:57.448Z,162.30
2023-04-16T18:49:28.793Z,180.40
2023-04-16T18:51:57.714Z,179.20
2023-04-16T18:54:26.400Z,164.60
2023-04-16T18:57:04.068Z,172.90
2023-04-16T18:59:32.873Z,165.60
2023-04-16T19:02:01.771Z,163.20
2023-04-16T19:04:30.815Z,172.60
2023-04-16T19:07:00.237Z,141.80
2023-04-16T19:09:28.831Z,169.00
2023-04-16T19:11:59.168Z,181.60
2023-04-16T19:14:28.612Z,175.00
2023-04-16T19:16:58.802Z,171.70
2023-04-16T19:19:27.772Z,169.00
2023-04-16T19:21:56.591Z,166.20
2023-04-16T19:24:25.862Z,183.60
2023-04-16T19:26:54.341Z,161.70
2023-04-16T19:29:23.335Z,155.10
2023-04-16T19:31:52.238Z,169.30
2023-04-16T19:34:20.972Z,178.90
2023-04-16T19:36:49.726Z,164.60
2023-04-16T19:39:18.481Z,177.40
2023-04-16T19:41:47.082Z,189.10
2023-04-16T19:44:16.237Z,175.10
2023-04-16T19:46:44.844Z,181.30
2023-04-16T19:49:13.621Z,185.50
2023-04-16T19:51:42.453Z,151.40
2023-04-16T19:54:11.220Z,159.20
2023-04-16T19:56:39.690Z,167.00
2023-04-16T19:59:08.176Z,190.70
2023-04-16T20:01:37.427Z,188.10
2023-04-16T20:04:07.317Z,173.40
2023-04-16T20:06:36.181Z,176.50
2023-04-16T20:09:05.282Z,188.40
2023-04-16T20:11:59.145Z,179.20
2023-04-16T20:14:27.732Z,166.70
2023-04-16T20:16:56.241Z,152.10
2023-04-16T20:19:31.657Z,136.80
2023-04-16T20:22:00.743Z,142.30
2023-04-16T20:24:31.314Z,151.30
2023-04-16T20:27:00.056Z,133.60
2023-04-16T20:29:31.893Z,124.40
2023-04-16T20:32:06.054Z,117.50
2023-04-16T20:34:34.738Z,131.90
2023-04-16T20:37:03.304Z,105.70
2023-04-16T20:39:34.230Z,119.30
2023-04-16T20:42:04.508Z,130.20
2023-04-16T20:44:40.590Z,105.60
2023-04-16T20:47:11.138Z,115.70
2023-04-16T20:49:40.578Z,111.00
2023-04-16T20:52:09.077Z,116.80
2023-04-16T20:54:37.937Z,108.80
2023-04-16T20:57:06.717Z,108.60
2023-04-16T20:59:37.172Z,106.30
2023-04-16T21:02:07.044Z,106.00
2023-04-16T21:04:35.634Z,116.70
2023-04-16T21:07:04.516Z,124.00
2023-04-16T21:09:33.026Z,116.70
2023-04-16T21:12:04.538Z,108.10
2023-04-16T21:14:33.152Z,98.70
2023-04-16T21:17:01.882Z,106.40
2023-04-16T21:20:20.904Z,121.80
2023-04-16T21:22:57.106Z,118.40
2023-04-16T21:25:26.060Z,127.70
2023-04-16T21:28:35.095Z,138.80
2023-04-16T21:31:03.689Z,120.20
2023-04-16T21:36:49.326Z,123.70
2023-04-16T21:39:56.358Z,135.90
2023-04-16T21:45:11.710Z,135.30
2023-04-16T21:47:40.793Z,127.70
2023-04-16T21:50:28.694Z,133.20
2023-04-16T21:53:23.885Z,135.60
2023-04-16T21:55:52.468Z,124.70
2023-04-16T21:58:36.120Z,136.00
2023-04-16T22:01:09.556Z,114.30
2023-04-16T22:04:26.625Z,133.00
2023-04-16T22:07:17.180Z,143.40
2023-04-16T22:10:04.478Z,146.20
2023-04-16T22:13:02.034Z,139.60
2023-04-16T22:15:56.277Z,135.40
2023-04-16T22:18:50.285Z,158.20
2023-04-16T22:21:18.966Z,154.40
2023-04-16T22:24:18.055Z,140.50
2023-04-16T22:26:58.213Z,149.80
2023-04-16T22:42:48.759Z,146.60
2023-04-16T22:45:34.909Z,142.00
2023-04-16T22:48:27.340Z,124.20
2023-04-16T22:50:56.432Z,107.80
2023-04-16T22:53:52.153Z,116.90
2023-04-16T22:57:45.536Z,110.40
2023-04-16T23:00:46.477Z,108.10
2023-04-16T23:04:07.532Z,102.00
2023-04-16T23:08:24.418Z,111.00
2023-04-16T23:12:03.128Z,106.30
2023-04-16T23:19:59.080Z,107.20
2023-04-16T23:23:20.600Z,97.00
2023-04-16T23:25:56.766Z,92.90
2023-04-16T23:28:30.575Z,108.20
2023-04-16T23:31:43.219Z,111.00
2023-04-16T23:37:57.664Z,104.70
2023-04-16T23:41:27.242Z,106.00
2023-04-16T23:44:53.279Z,116.70
2023-04-16T23:48:14.696Z,104.90
2023-04-16T23:51:39.763Z,106.10
2023-04-16T23:55:12.878Z,116.40
2023-04-16T23:58:31.073Z,118.40
